sensor_id;sensor_type;location;lat;lon;timestamp;temperature;humidity
47590;DHT22;33316;52.298;9.056;2023-03-08T00:00:45;2.90;90.40
47590;DHT22;33316;52.298;9.056;2023-03-08T00:03:12;2.90;90.40
47590;DHT22;33316;52.298;9.056;2023-03-08T00:05:39;2.90;90.40
47590;DHT22;33316;52.298;9.056;2023-03-08T00:08:06;2.90;90.40
47590;DHT22;33316;52.298;9.056;2023-03-08T00:10:32;2.90;90.30
47590;DHT22;33316;52.298;9.056;2023-03-08T00:13:00;2.90;90.30
47590;DHT22;33316;52.298;9.056;2023-03-08T00:15:27;2.90;90.30
47590;DHT22;33316;52.298;9.056;2023-03-08T00:17:53;2.90;90.30
47590;DHT22;33316;52.298;9.056;2023-03-08T00:20:20;2.90;90.30
47590;DHT22;33316;52.298;9.056;2023-03-08T00:22:46;2.90;90.30
47590;DHT22;33316;52.298;9.056;2023-03-08T00:25:13;2.90;90.20
47590;DHT22;33316;52.298;9.056;2023-03-08T00:27:40;2.90;90.60
47590;DHT22;33316;52.298;9.056;2023-03-08T00:30:09;2.90;90.60
47590;DHT22;33316;52.298;9.056;2023-03-08T00:32:36;2.80;90.20
47590;DHT22;33316;52.298;9.056;2023-03-08T00:35:03;2.90;90.20
47590;DHT22;33316;52.298;9.056;2023-03-08T00:37:29;2.90;90.20
47590;DHT22;33316;52.298;9.056;2023-03-08T00:39:56;2.90;90.20
47590;DHT22;33316;52.298;9.056;2023-03-08T00:42:23;2.80;90.20
47590;DHT22;33316;52.298;9.056;2023-03-08T00:44:49;2.90;90.20
47590;DHT22;33316;52.298;9.056;2023-03-08T00:47:17;2.90;90.20
47590;DHT22;33316;52.298;9.056;2023-03-08T00:49:44;2.90;90.20
47590;DHT22;33316;52.298;9.056;2023-03-08T00:52:10;2.90;90.20
47590;DHT22;33316;52.298;9.056;2023-03-08T00:54:37;2.90;90.20
47590;DHT22;33316;52.298;9.056;2023-03-08T00:57:03;2.90;90.20
47590;DHT22;33316;52.298;9.056;2023-03-08T00:59:30;2.90;90.20
47590;DHT22;33316;52.298;9.056;2023-03-08T01:01:57;2.90;90.20
47590;DHT22;33316;52.298;9.056;2023-03-08T01:04:25;2.90;90.20
47590;DHT22;33316;52.298;9.056;2023-03-08T01:06:51;2.90;90.20
47590;DHT22;33316;52.298;9.056;2023-03-08T01:09:18;2.90;90.20
47590;DHT22;33316;52.298;9.056;2023-03-08T01:11:44;2.90;90.20
47590;DHT22;33316;52.298;9.056;2023-03-08T01:14:11;2.80;90.20
47590;DHT22;33316;52.298;9.056;2023-03-08T01:16:37;2.90;90.30
47590;DHT22;33316;52.298;9.056;2023-03-08T01:19:04;2.90;90.30
47590;DHT22;33316;52.298;9.056;2023-03-08T01:21:32;2.90;90.30
47590;DHT22;33316;52.298;9.056;2023-03-08T01:23:59;2.90;90.30
47590;DHT22;33316;52.298;9.056;2023-03-08T01:26:25;2.90;90.40
47590;DHT22;33316;52.298;9.056;2023-03-08T01:28:52;2.90;90.30
47590;DHT22;33316;52.298;9.056;2023-03-08T01:31:19;2.90;90.30
47590;DHT22;33316;52.298;9.056;2023-03-08T01:33:46;2.80;90.30
47590;DHT22;33316;52.298;9.056;2023-03-08T01:36:16;2.80;90.30
47590;DHT22;33316;52.298;9.056;2023-03-08T01:38:45;2.80;90.30
47590;DHT22;33316;52.298;9.056;2023-03-08T01:41:12;2.80;90.30
47590;DHT22;33316;52.298;9.056;2023-03-08T01:43:39;2.80;90.30
47590;DHT22;33316;52.298;9.056;2023-03-08T01:46:17;2.80;90.30
47590;DHT22;33316;52.298;9.056;2023-03-08T01:48:44;2.80;90.30
47590;DHT22;33316;52.298;9.056;2023-03-08T01:51:14;2.80;90.30
47590;DHT22;33316;52.298;9.056;2023-03-08T01:53:41;2.80;90.30
47590;DHT22;33316;52.298;9.056;2023-03-08T01:56:10;2.80;90.20
47590;DHT22;33316;52.298;9.056;2023-03-08T01:58:37;2.80;90.20
47590;DHT22;33316;52.298;9.056;2023-03-08T02:01:04;2.80;90.20
47590;DHT22;33316;52.298;9.056;2023-03-08T02:03:31;2.70;90.20
47590;DHT22;33316;52.298;9.056;2023-03-08T02:05:58;2.70;90.10
47590;DHT22;33316;52.298;9.056;2023-03-08T02:08:24;2.70;90.10
47590;DHT22;33316;52.298;9.056;2023-03-08T02:10:51;2.70;90.10
47590;DHT22;33316;52.298;9.056;2023-03-08T02:13:19;2.70;90.10
47590;DHT22;33316;52.298;9.056;2023-03-08T02:15:46;2.60;90.10
47590;DHT22;33316;52.298;9.056;2023-03-08T02:18:13;2.60;90.10
47590;DHT22;33316;52.298;9.056;2023-03-08T02:20:40;2.60;90.00
47590;DHT22;33316;52.298;9.056;2023-03-08T02:23:09;2.60;90.00
47590;DHT22;33316;52.298;9.056;2023-03-08T02:25:36;2.60;90.00
47590;DHT22;33316;52.298;9.056;2023-03-08T02:28:03;2.60;90.00
47590;DHT22;33316;52.298;9.056;2023-03-08T02:30:30;2.60;90.00
47590;DHT22;33316;52.298;9.056;2023-03-08T02:32:57;2.60;90.00
47590;DHT22;33316;52.298;9.056;2023-03-08T02:35:24;2.60;90.00
47590;DHT22;33316;52.298;9.056;2023-03-08T02:37:50;2.50;90.00
47590;DHT22;33316;52.298;9.056;2023-03-08T02:40:19;2.50;89.90
47590;DHT22;33316;52.298;9.056;2023-03-08T02:42:45;2.50;89.80
47590;DHT22;33316;52.298;9.056;2023-03-08T02:45:12;2.50;89.80
47590;DHT22;33316;52.298;9.056;2023-03-08T02:47:38;2.50;89.80
47590;DHT22;33316;52.298;9.056;2023-03-08T02:50:06;2.50;89.60
47590;DHT22;33316;52.298;9.056;2023-03-08T02:52:33;2.50;89.60
47590;DHT22;33316;52.298;9.056;2023-03-08T02:54:59;2.40;89.50
47590;DHT22;33316;52.298;9.056;2023-03-08T02:57:27;2.40;89.50
47590;DHT22;33316;52.298;9.056;2023-03-08T02:59:54;2.40;89.50
47590;DHT22;33316;52.298;9.056;2023-03-08T03:02:20;2.40;89.40
47590;DHT22;33316;52.298;9.056;2023-03-08T03:04:47;2.40;89.40
47590;DHT22;33316;52.298;9.056;2023-03-08T03:07:14;2.40;89.40
47590;DHT22;33316;52.298;9.056;2023-03-08T03:09:40;2.30;89.30
47590;DHT22;33316;52.298;9.056;2023-03-08T03:12:07;2.30;89.20
47590;DHT22;33316;52.298;9.056;2023-03-08T03:14:37;2.30;89.30
47590;DHT22;33316;52.298;9.056;2023-03-08T03:17:03;2.30;89.20
47590;DHT22;33316;52.298;9.056;2023-03-08T03:19:30;2.30;89.30
47590;DHT22;33316;52.298;9.056;2023-03-08T03:21:58;2.30;89.30
47590;DHT22;33316;52.298;9.056;2023-03-08T03:24:25;2.30;89.30
47590;DHT22;33316;52.298;9.056;2023-03-08T03:26:51;2.20;89.20
47590;DHT22;33316;52.298;9.056;2023-03-08T03:29:18;2.20;89.20
47590;DHT22;33316;52.298;9.056;2023-03-08T03:31:46;2.20;89.20
47590;DHT22;33316;52.298;9.056;2023-03-08T03:34:12;2.20;89.20
47590;DHT22;33316;52.298;9.056;2023-03-08T03:36:39;2.20;89.20
47590;DHT22;33316;52.298;9.056;2023-03-08T03:39:06;2.20;89.20
47590;DHT22;33316;52.298;9.056;2023-03-08T03:41:32;2.20;89.20
47590;DHT22;33316;52.298;9.056;2023-03-08T03:43:59;2.20;89.30
47590;DHT22;33316;52.298;9.056;2023-03-08T03:46:25;2.20;89.30
47590;DHT22;33316;52.298;9.056;2023-03-08T03:48:53;2.10;89.20
47590;DHT22;33316;52.298;9.056;2023-03-08T03:51:20;2.10;89.30
47590;DHT22;33316;52.298;9.056;2023-03-08T03:53:47;2.10;89.30
47590;DHT22;33316;52.298;9.056;2023-03-08T03:56:15;2.10;89.30
47590;DHT22;33316;52.298;9.056;2023-03-08T03:58:41;2.10;89.30
47590;DHT22;33316;52.298;9.056;2023-03-08T04:01:08;2.10;89.30
47590;DHT22;33316;52.298;9.056;2023-03-08T04:03:35;2.10;89.30
47590;DHT22;33316;52.298;9.056;2023-03-08T04:06:07;2.10;89.30
47590;DHT22;33316;52.298;9.056;2023-03-08T04:08:34;2.10;89.30
47590;DHT22;33316;52.298;9.056;2023-03-08T04:11:06;2.10;89.30
47590;DHT22;33316;52.298;9.056;2023-03-08T04:13:33;2.00;89.30
47590;DHT22;33316;52.298;9.056;2023-03-08T04:15:59;2.00;89.30
47590;DHT22;33316;52.298;9.056;2023-03-08T04:18:26;2.00;89.20
47590;DHT22;33316;52.298;9.056;2023-03-08T04:20:52;2.00;89.20
47590;DHT22;33316;52.298;9.056;2023-03-08T04:23:20;2.00;89.20
47590;DHT22;33316;52.298;9.056;2023-03-08T04:25:46;2.00;89.30
47590;DHT22;33316;52.298;9.056;2023-03-08T04:28:13;2.00;89.30
47590;DHT22;33316;52.298;9.056;2023-03-08T04:30:40;2.00;89.30
47590;DHT22;33316;52.298;9.056;2023-03-08T04:33:06;2.00;89.30
47590;DHT22;33316;52.298;9.056;2023-03-08T04:35:33;2.00;89.30
47590;DHT22;33316;52.298;9.056;2023-03-08T04:38:00;1.90;89.30
47590;DHT22;33316;52.298;9.056;2023-03-08T04:40:28;1.90;89.30
47590;DHT22;33316;52.298;9.056;2023-03-08T04:42:55;1.90;89.30
47590;DHT22;33316;52.298;9.056;2023-03-08T04:45:21;1.90;89.40
47590;DHT22;33316;52.298;9.056;2023-03-08T04:47:48;1.90;89.40
47590;DHT22;33316;52.298;9.056;2023-03-08T04:50:15;1.90;89.40
47590;DHT22;33316;52.298;9.056;2023-03-08T04:52:41;1.90;89.40
47590;DHT22;33316;52.298;9.056;2023-03-08T04:55:08;1.90;89.40
47590;DHT22;33316;52.298;9.056;2023-03-08T04:57:36;1.90;89.50
47590;DHT22;33316;52.298;9.056;2023-03-08T05:00:03;1.90;89.50
47590;DHT22;33316;52.298;9.056;2023-03-08T05:02:30;1.90;89.50
47590;DHT22;33316;52.298;9.056;2023-03-08T05:04:56;1.90;89.50
47590;DHT22;33316;52.298;9.056;2023-03-08T05:07:23;1.80;89.40
47590;DHT22;33316;52.298;9.056;2023-03-08T05:09:49;1.80;89.40
47590;DHT22;33316;52.298;9.056;2023-03-08T05:12:16;1.80;89.50
47590;DHT22;33316;52.298;9.056;2023-03-08T05:14:44;1.80;89.50
47590;DHT22;33316;52.298;9.056;2023-03-08T05:17:10;1.80;89.60
47590;DHT22;33316;52.298;9.056;2023-03-08T05:19:37;1.80;89.60
47590;DHT22;33316;52.298;9.056;2023-03-08T05:22:03;1.80;89.60
47590;DHT22;33316;52.298;9.056;2023-03-08T05:24:31;1.80;89.60
47590;DHT22;33316;52.298;9.056;2023-03-08T05:26:57;1.80;89.60
47590;DHT22;33316;52.298;9.056;2023-03-08T05:29:24;1.80;89.60
47590;DHT22;33316;52.298;9.056;2023-03-08T05:31:51;1.80;89.60
47590;DHT22;33316;52.298;9.056;2023-03-08T05:34:18;1.80;89.60
47590;DHT22;33316;52.298;9.056;2023-03-08T05:36:45;1.80;89.60
47590;DHT22;33316;52.298;9.056;2023-03-08T05:39:11;1.80;89.60
47590;DHT22;33316;52.298;9.056;2023-03-08T05:41:38;1.80;89.60
47590;DHT22;33316;52.298;9.056;2023-03-08T05:44:04;1.80;89.50
47590;DHT22;33316;52.298;9.056;2023-03-08T05:46:31;1.80;89.50
47590;DHT22;33316;52.298;9.056;2023-03-08T05:48:59;1.80;89.50
47590;DHT22;33316;52.298;9.056;2023-03-08T05:51:25;1.80;89.50
47590;DHT22;33316;52.298;9.056;2023-03-08T05:53:52;1.80;89.40
47590;DHT22;33316;52.298;9.056;2023-03-08T05:56:19;1.80;89.40
47590;DHT22;33316;52.298;9.056;2023-03-08T05:58:46;1.80;89.40
47590;DHT22;33316;52.298;9.056;2023-03-08T06:01:14;1.70;89.40
47590;DHT22;33316;52.298;9.056;2023-03-08T06:03:41;1.80;89.40
47590;DHT22;33316;52.298;9.056;2023-03-08T06:06:08;1.70;89.40
47590;DHT22;33316;52.298;9.056;2023-03-08T06:08:35;1.80;89.50
47590;DHT22;33316;52.298;9.056;2023-03-08T06:11:02;1.80;89.50
47590;DHT22;33316;52.298;9.056;2023-03-08T06:13:28;1.80;89.50
47590;DHT22;33316;52.298;9.056;2023-03-08T06:15:55;1.80;89.50
47590;DHT22;33316;52.298;9.056;2023-03-08T06:18:22;1.80;89.60
47590;DHT22;33316;52.298;9.056;2023-03-08T06:20:56;1.80;89.60
47590;DHT22;33316;52.298;9.056;2023-03-08T06:23:24;1.80;89.70
47590;DHT22;33316;52.298;9.056;2023-03-08T06:25:51;1.80;89.70
47590;DHT22;33316;52.298;9.056;2023-03-08T06:28:17;1.80;89.70
47590;DHT22;33316;52.298;9.056;2023-03-08T06:30:45;1.80;89.80
47590;DHT22;33316;52.298;9.056;2023-03-08T06:33:13;1.80;89.80
47590;DHT22;33316;52.298;9.056;2023-03-08T06:35:40;1.80;89.80
47590;DHT22;33316;52.298;9.056;2023-03-08T06:38:06;1.80;89.80
47590;DHT22;33316;52.298;9.056;2023-03-08T06:40:34;1.80;89.80
47590;DHT22;33316;52.298;9.056;2023-03-08T06:43:01;1.90;89.80
47590;DHT22;33316;52.298;9.056;2023-03-08T06:45:27;1.90;89.80
47590;DHT22;33316;52.298;9.056;2023-03-08T06:47:54;1.90;89.80
47590;DHT22;33316;52.298;9.056;2023-03-08T06:50:20;1.90;89.80
47590;DHT22;33316;52.298;9.056;2023-03-08T06:52:47;1.90;89.80
47590;DHT22;33316;52.298;9.056;2023-03-08T06:55:14;1.90;89.80
47590;DHT22;33316;52.298;9.056;2023-03-08T06:57:41;2.00;89.80
47590;DHT22;33316;52.298;9.056;2023-03-08T07:00:08;1.90;89.70
47590;DHT22;33316;52.298;9.056;2023-03-08T07:02:36;1.90;89.70
47590;DHT22;33316;52.298;9.056;2023-03-08T07:05:03;2.00;89.70
47590;DHT22;33316;52.298;9.056;2023-03-08T07:07:29;2.00;89.70
47590;DHT22;33316;52.298;9.056;2023-03-08T07:09:56;2.00;89.70
47590;DHT22;33316;52.298;9.056;2023-03-08T07:12:23;2.00;89.70
47590;DHT22;33316;52.298;9.056;2023-03-08T07:14:51;2.00;89.70
47590;DHT22;33316;52.298;9.056;2023-03-08T07:17:18;2.10;89.80
47590;DHT22;33316;52.298;9.056;2023-03-08T07:19:45;2.10;89.70
47590;DHT22;33316;52.298;9.056;2023-03-08T07:22:11;2.10;89.70
47590;DHT22;33316;52.298;9.056;2023-03-08T07:24:38;2.10;89.70
47590;DHT22;33316;52.298;9.056;2023-03-08T07:27:05;2.10;89.70
47590;DHT22;33316;52.298;9.056;2023-03-08T07:29:31;2.10;89.60
47590;DHT22;33316;52.298;9.056;2023-03-08T07:31:59;2.10;89.60
47590;DHT22;33316;52.298;9.056;2023-03-08T07:34:25;2.20;89.70
47590;DHT22;33316;52.298;9.056;2023-03-08T07:36:52;2.20;89.60
47590;DHT22;33316;52.298;9.056;2023-03-08T07:39:19;2.20;89.60
47590;DHT22;33316;52.298;9.056;2023-03-08T07:41:47;2.20;89.60
47590;DHT22;33316;52.298;9.056;2023-03-08T07:44:14;2.20;89.60
47590;DHT22;33316;52.298;9.056;2023-03-08T07:46:40;2.30;89.70
47590;DHT22;33316;52.298;9.056;2023-03-08T07:49:08;2.30;89.60
47590;DHT22;33316;52.298;9.056;2023-03-08T07:51:36;2.30;89.60
47590;DHT22;33316;52.298;9.056;2023-03-08T07:54:02;2.30;89.60
47590;DHT22;33316;52.298;9.056;2023-03-08T07:56:29;2.30;89.60
47590;DHT22;33316;52.298;9.056;2023-03-08T07:58:55;2.30;89.60
47590;DHT22;33316;52.298;9.056;2023-03-08T08:01:22;2.40;89.60
47590;DHT22;33316;52.298;9.056;2023-03-08T08:03:49;2.40;89.60
47590;DHT22;33316;52.298;9.056;2023-03-08T08:06:17;2.40;89.60
47590;DHT22;33316;52.298;9.056;2023-03-08T08:08:43;2.40;89.50
47590;DHT22;33316;52.298;9.056;2023-03-08T08:11:10;2.40;89.40
47590;DHT22;33316;52.298;9.056;2023-03-08T08:13:37;2.40;89.40
47590;DHT22;33316;52.298;9.056;2023-03-08T08:16:04;2.40;89.40
47590;DHT22;33316;52.298;9.056;2023-03-08T08:18:31;2.40;89.40
47590;DHT22;33316;52.298;9.056;2023-03-08T08:20:58;2.50;89.50
47590;DHT22;33316;52.298;9.056;2023-03-08T08:23:26;2.50;89.50
47590;DHT22;33316;52.298;9.056;2023-03-08T08:25:53;2.50;89.50
47590;DHT22;33316;52.298;9.056;2023-03-08T08:28:20;2.50;89.30
47590;DHT22;33316;52.298;9.056;2023-03-08T08:30:53;2.50;89.30
47590;DHT22;33316;52.298;9.056;2023-03-08T08:33:20;2.50;89.30
47590;DHT22;33316;52.298;9.056;2023-03-08T08:35:46;2.50;89.40
47590;DHT22;33316;52.298;9.056;2023-03-08T08:38:13;2.60;89.20
47590;DHT22;33316;52.298;9.056;2023-03-08T08:40:41;2.60;89.10
47590;DHT22;33316;52.298;9.056;2023-03-08T08:43:07;2.60;89.00
47590;DHT22;33316;52.298;9.056;2023-03-08T08:45:34;2.60;89.00
47590;DHT22;33316;52.298;9.056;2023-03-08T08:48:01;2.60;89.00
47590;DHT22;33316;52.298;9.056;2023-03-08T08:50:27;2.60;88.80
47590;DHT22;33316;52.298;9.056;2023-03-08T08:52:54;2.60;88.80
47590;DHT22;33316;52.298;9.056;2023-03-08T08:55:21;2.70;88.80
47590;DHT22;33316;52.298;9.056;2023-03-08T08:57:49;2.70;88.80
47590;DHT22;33316;52.298;9.056;2023-03-08T09:00:23;2.70;88.70
47590;DHT22;33316;52.298;9.056;2023-03-08T09:02:52;2.70;88.70
47590;DHT22;33316;52.298;9.056;2023-03-08T09:05:19;2.70;88.70
47590;DHT22;33316;52.298;9.056;2023-03-08T09:07:46;2.70;88.60
47590;DHT22;33316;52.298;9.056;2023-03-08T09:10:13;2.80;88.60
47590;DHT22;33316;52.298;9.056;2023-03-08T09:12:40;2.80;88.60
47590;DHT22;33316;52.298;9.056;2023-03-08T09:15:09;2.80;88.40
47590;DHT22;33316;52.298;9.056;2023-03-08T09:17:36;2.80;88.30
47590;DHT22;33316;52.298;9.056;2023-03-08T09:20:03;2.80;88.30
47590;DHT22;33316;52.298;9.056;2023-03-08T09:22:33;2.90;88.30
47590;DHT22;33316;52.298;9.056;2023-03-08T09:24:59;2.90;88.30
47590;DHT22;33316;52.298;9.056;2023-03-08T09:27:26;2.90;88.20
47590;DHT22;33316;52.298;9.056;2023-03-08T09:29:52;2.90;88.20
47590;DHT22;33316;52.298;9.056;2023-03-08T09:32:20;2.90;88.30
47590;DHT22;33316;52.298;9.056;2023-03-08T09:34:47;2.90;88.20
47590;DHT22;33316;52.298;9.056;2023-03-08T09:37:13;3.00;89.00
47590;DHT22;33316;52.298;9.056;2023-03-08T09:39:40;3.00;88.30
47590;DHT22;33316;52.298;9.056;2023-03-08T09:42:13;3.00;88.20
47590;DHT22;33316;52.298;9.056;2023-03-08T09:44:45;3.00;88.20
47590;DHT22;33316;52.298;9.056;2023-03-08T09:47:15;3.00;88.00
47590;DHT22;33316;52.298;9.056;2023-03-08T09:49:44;3.10;87.90
47590;DHT22;33316;52.298;9.056;2023-03-08T09:52:13;3.10;87.80
47590;DHT22;33316;52.298;9.056;2023-03-08T09:54:42;3.10;87.80
47590;DHT22;33316;52.298;9.056;2023-03-08T09:57:10;3.20;87.90
47590;DHT22;33316;52.298;9.056;2023-03-08T09:59:39;3.20;87.80
47590;DHT22;33316;52.298;9.056;2023-03-08T10:02:13;3.20;87.60
47590;DHT22;33316;52.298;9.056;2023-03-08T10:04:47;3.20;87.60
47590;DHT22;33316;52.298;9.056;2023-03-08T10:07:19;3.20;87.60
47590;DHT22;33316;52.298;9.056;2023-03-08T10:09:50;3.30;87.40
47590;DHT22;33316;52.298;9.056;2023-03-08T10:12:19;3.30;87.30
47590;DHT22;33316;52.298;9.056;2023-03-08T10:14:49;3.30;87.30
47590;DHT22;33316;52.298;9.056;2023-03-08T10:17:17;3.40;87.20
47590;DHT22;33316;52.298;9.056;2023-03-08T10:19:47;3.40;87.20
47590;DHT22;33316;52.298;9.056;2023-03-08T10:22:19;3.40;87.10
47590;DHT22;33316;52.298;9.056;2023-03-08T10:24:49;3.40;86.90
47590;DHT22;33316;52.298;9.056;2023-03-08T10:27:18;3.50;86.80
47590;DHT22;33316;52.298;9.056;2023-03-08T10:29:49;3.50;86.60
47590;DHT22;33316;52.298;9.056;2023-03-08T10:32:16;3.50;86.50
47590;DHT22;33316;52.298;9.056;2023-03-08T10:34:43;3.50;86.40
47590;DHT22;33316;52.298;9.056;2023-03-08T10:37:11;3.50;86.40
47590;DHT22;33316;52.298;9.056;2023-03-08T10:39:46;3.60;86.50
47590;DHT22;33316;52.298;9.056;2023-03-08T10:42:16;3.50;86.40
47590;DHT22;33316;52.298;9.056;2023-03-08T10:44:46;3.60;86.40
47590;DHT22;33316;52.298;9.056;2023-03-08T10:47:18;3.60;86.40
47590;DHT22;33316;52.298;9.056;2023-03-08T10:49:44;3.70;86.40
47590;DHT22;33316;52.298;9.056;2023-03-08T10:52:19;3.70;86.30
47590;DHT22;33316;52.298;9.056;2023-03-08T10:54:46;3.70;86.20
47590;DHT22;33316;52.298;9.056;2023-03-08T10:57:24;3.70;86.20
47590;DHT22;33316;52.298;9.056;2023-03-08T10:59:51;3.70;86.20
47590;DHT22;33316;52.298;9.056;2023-03-08T11:02:18;3.70;86.20
47590;DHT22;33316;52.298;9.056;2023-03-08T11:04:50;3.70;86.20
47590;DHT22;33316;52.298;9.056;2023-03-08T11:07:20;3.70;86.10
47590;DHT22;33316;52.298;9.056;2023-03-08T11:09:48;3.70;86.00
47590;DHT22;33316;52.298;9.056;2023-03-08T11:12:20;3.70;85.80
47590;DHT22;33316;52.298;9.056;2023-03-08T11:14:47;3.70;85.80
47590;DHT22;33316;52.298;9.056;2023-03-08T11:17:14;3.80;85.70
47590;DHT22;33316;52.298;9.056;2023-03-08T11:19:46;3.80;85.70
47590;DHT22;33316;52.298;9.056;2023-03-08T11:22:22;3.80;85.70
47590;DHT22;33316;52.298;9.056;2023-03-08T11:24:53;3.80;85.60
47590;DHT22;33316;52.298;9.056;2023-03-08T11:27:31;3.80;85.40
47590;DHT22;33316;52.298;9.056;2023-03-08T11:30:04;3.90;85.50
47590;DHT22;33316;52.298;9.056;2023-03-08T11:32:37;3.90;85.60
47590;DHT22;33316;52.298;9.056;2023-03-08T11:35:08;3.90;85.70
47590;DHT22;33316;52.298;9.056;2023-03-08T11:37:39;4.00;85.20
47590;DHT22;33316;52.298;9.056;2023-03-08T11:40:13;4.00;85.20
47590;DHT22;33316;52.298;9.056;2023-03-08T11:42:47;4.00;85.30
47590;DHT22;33316;52.298;9.056;2023-03-08T11:45:21;4.10;86.10
47590;DHT22;33316;52.298;9.056;2023-03-08T11:47:56;4.10;85.30
47590;DHT22;33316;52.298;9.056;2023-03-08T11:50:29;4.10;85.20
47590;DHT22;33316;52.298;9.056;2023-03-08T11:53:03;4.10;85.00
47590;DHT22;33316;52.298;9.056;2023-03-08T11:55:32;4.20;85.10
47590;DHT22;33316;52.298;9.056;2023-03-08T11:58:02;4.20;85.10
47590;DHT22;33316;52.298;9.056;2023-03-08T12:00:29;4.20;85.10
47590;DHT22;33316;52.298;9.056;2023-03-08T12:02:58;4.30;84.80
47590;DHT22;33316;52.298;9.056;2023-03-08T12:05:27;4.30;84.70
47590;DHT22;33316;52.298;9.056;2023-03-08T12:07:56;4.30;84.00
47590;DHT22;33316;52.298;9.056;2023-03-08T12:10:25;4.30;83.90
47590;DHT22;33316;52.298;9.056;2023-03-08T12:12:54;4.40;83.80
47590;DHT22;33316;52.298;9.056;2023-03-08T12:15:25;4.40;84.00
47590;DHT22;33316;52.298;9.056;2023-03-08T12:17:53;4.40;83.90
47590;DHT22;33316;52.298;9.056;2023-03-08T12:20:22;4.30;83.60
47590;DHT22;33316;52.298;9.056;2023-03-08T12:22:49;4.40;83.90
47590;DHT22;33316;52.298;9.056;2023-03-08T12:25:21;4.40;83.50
47590;DHT22;33316;52.298;9.056;2023-03-08T12:27:52;4.30;83.00
47590;DHT22;33316;52.298;9.056;2023-03-08T12:30:24;4.30;82.70
47590;DHT22;33316;52.298;9.056;2023-03-08T12:32:52;4.30;83.10
47590;DHT22;33316;52.298;9.056;2023-03-08T12:35:24;4.30;83.20
47590;DHT22;33316;52.298;9.056;2023-03-08T12:37:55;4.30;83.40
47590;DHT22;33316;52.298;9.056;2023-03-08T12:40:26;4.30;83.50
47590;DHT22;33316;52.298;9.056;2023-03-08T12:43:03;4.30;83.60
47590;DHT22;33316;52.298;9.056;2023-03-08T12:45:30;4.20;83.60
47590;DHT22;33316;52.298;9.056;2023-03-08T12:47:59;4.20;83.00
47590;DHT22;33316;52.298;9.056;2023-03-08T12:50:27;4.20;83.30
47590;DHT22;33316;52.298;9.056;2023-03-08T12:52:54;4.20;83.10
47590;DHT22;33316;52.298;9.056;2023-03-08T12:55:23;4.20;83.30
47590;DHT22;33316;52.298;9.056;2023-03-08T12:57:55;4.20;83.50
47590;DHT22;33316;52.298;9.056;2023-03-08T13:00:25;4.20;83.60
47590;DHT22;33316;52.298;9.056;2023-03-08T13:02:59;4.20;83.70
47590;DHT22;33316;52.298;9.056;2023-03-08T13:05:31;4.30;83.80
47590;DHT22;33316;52.298;9.056;2023-03-08T13:08:02;4.20;83.30
47590;DHT22;33316;52.298;9.056;2023-03-08T13:10:30;4.30;83.40
47590;DHT22;33316;52.298;9.056;2023-03-08T13:13:15;4.20;82.80
47590;DHT22;33316;52.298;9.056;2023-03-08T13:15:46;4.20;82.20
47590;DHT22;33316;52.298;9.056;2023-03-08T13:18:13;4.20;82.50
47590;DHT22;33316;52.298;9.056;2023-03-08T13:23:26;4.10;82.50
47590;DHT22;33316;52.298;9.056;2023-03-08T13:25:57;4.10;82.80
47590;DHT22;33316;52.298;9.056;2023-03-08T13:28:26;4.10;82.70
47590;DHT22;33316;52.298;9.056;2023-03-08T13:30:59;4.10;83.00
47590;DHT22;33316;52.298;9.056;2023-03-08T13:33:27;4.10;82.20
47590;DHT22;33316;52.298;9.056;2023-03-08T13:35:55;4.10;82.90
47590;DHT22;33316;52.298;9.056;2023-03-08T13:38:22;4.10;81.70
47590;DHT22;33316;52.298;9.056;2023-03-08T13:40:49;4.10;81.30
47590;DHT22;33316;52.298;9.056;2023-03-08T13:43:16;4.10;81.60
47590;DHT22;33316;52.298;9.056;2023-03-08T13:45:45;4.00;81.70
47590;DHT22;33316;52.298;9.056;2023-03-08T13:48:13;4.00;80.80
47590;DHT22;33316;52.298;9.056;2023-03-08T13:50:41;4.00;81.10
47590;DHT22;33316;52.298;9.056;2023-03-08T13:53:09;4.00;81.70
47590;DHT22;33316;52.298;9.056;2023-03-08T13:55:37;4.00;81.80
47590;DHT22;33316;52.298;9.056;2023-03-08T13:58:04;3.90;82.00
47590;DHT22;33316;52.298;9.056;2023-03-08T14:00:31;3.90;82.10
47590;DHT22;33316;52.298;9.056;2023-03-08T14:02:58;3.90;82.10
47590;DHT22;33316;52.298;9.056;2023-03-08T14:05:27;3.90;82.10
47590;DHT22;33316;52.298;9.056;2023-03-08T14:07:55;3.90;82.40
47590;DHT22;33316;52.298;9.056;2023-03-08T14:10:22;3.90;82.60
47590;DHT22;33316;52.298;9.056;2023-03-08T14:12:52;3.90;82.60
47590;DHT22;33316;52.298;9.056;2023-03-08T14:15:19;3.90;82.80
47590;DHT22;33316;52.298;9.056;2023-03-08T14:17:46;3.90;82.80
47590;DHT22;33316;52.298;9.056;2023-03-08T14:20:16;3.90;82.90
47590;DHT22;33316;52.298;9.056;2023-03-08T14:22:46;3.90;82.80
47590;DHT22;33316;52.298;9.056;2023-03-08T14:25:21;3.90;82.80
47590;DHT22;33316;52.298;9.056;2023-03-08T14:27:48;3.90;82.90
47590;DHT22;33316;52.298;9.056;2023-03-08T14:30:16;3.90;83.10
47590;DHT22;33316;52.298;9.056;2023-03-08T14:32:59;3.90;83.20
47590;DHT22;33316;52.298;9.056;2023-03-08T14:35:27;3.90;83.20
47590;DHT22;33316;52.298;9.056;2023-03-08T14:37:55;3.90;84.00
47590;DHT22;33316;52.298;9.056;2023-03-08T14:40:27;3.90;83.40
47590;DHT22;33316;52.298;9.056;2023-03-08T14:42:54;3.90;83.60
47590;DHT22;33316;52.298;9.056;2023-03-08T14:45:22;3.90;83.70
47590;DHT22;33316;52.298;9.056;2023-03-08T14:47:50;3.90;83.70
47590;DHT22;33316;52.298;9.056;2023-03-08T14:50:18;3.90;83.70
47590;DHT22;33316;52.298;9.056;2023-03-08T14:52:45;3.80;83.80
47590;DHT22;33316;52.298;9.056;2023-03-08T14:55:19;3.90;84.00
47590;DHT22;33316;52.298;9.056;2023-03-08T14:57:47;3.80;84.00
47590;DHT22;33316;52.298;9.056;2023-03-08T15:00:14;3.80;83.90
47590;DHT22;33316;52.298;9.056;2023-03-08T15:02:41;3.80;83.80
47590;DHT22;33316;52.298;9.056;2023-03-08T15:05:11;3.80;84.00
47590;DHT22;33316;52.298;9.056;2023-03-08T15:07:37;3.80;83.90
47590;DHT22;33316;52.298;9.056;2023-03-08T15:10:07;3.70;83.60
47590;DHT22;33316;52.298;9.056;2023-03-08T15:12:38;3.70;83.80
47590;DHT22;33316;52.298;9.056;2023-03-08T15:15:08;3.70;83.90
47590;DHT22;33316;52.298;9.056;2023-03-08T15:17:37;3.70;83.90
47590;DHT22;33316;52.298;9.056;2023-03-08T15:20:03;3.70;83.90
47590;DHT22;33316;52.298;9.056;2023-03-08T15:22:30;3.70;84.00
47590;DHT22;33316;52.298;9.056;2023-03-08T15:24:57;3.70;84.00
47590;DHT22;33316;52.298;9.056;2023-03-08T15:27:24;3.70;84.10
47590;DHT22;33316;52.298;9.056;2023-03-08T15:29:52;3.70;84.20
47590;DHT22;33316;52.298;9.056;2023-03-08T15:32:18;3.70;84.10
47590;DHT22;33316;52.298;9.056;2023-03-08T15:34:45;3.70;83.90
47590;DHT22;33316;52.298;9.056;2023-03-08T15:37:12;3.70;83.70
47590;DHT22;33316;52.298;9.056;2023-03-08T15:39:39;3.70;83.80
47590;DHT22;33316;52.298;9.056;2023-03-08T15:42:05;3.70;83.80
47590;DHT22;33316;52.298;9.056;2023-03-08T15:44:32;3.60;84.00
47590;DHT22;33316;52.298;9.056;2023-03-08T15:47:00;3.60;84.30
47590;DHT22;33316;52.298;9.056;2023-03-08T15:49:29;3.60;84.50
47590;DHT22;33316;52.298;9.056;2023-03-08T15:51:56;3.60;84.70